createdAt,value
2019-05-14T00:00:10.070Z,71.17
2019-05-14T00:02:36.083Z,71.22
2019-05-14T00:05:03.397Z,71.39
2019-05-14T00:07:29.511Z,71.31
2019-05-14T00:09:55.621Z,71.30
2019-05-14T00:12:22.324Z,71.52
2019-05-14T00:14:48.657Z,71.54
2019-05-14T00:17:14.675Z,71.55
2019-05-14T00:19:41.713Z,71.43
2019-05-14T00:22:08.095Z,71.17
2019-05-14T00:24:34.145Z,71.29
2019-05-14T00:27:02.101Z,71.02
2019-05-14T00:29:28.230Z,71.08
2019-05-14T00:31:54.326Z,71.04
2019-05-14T00:34:21.493Z,70.95
2019-05-14T00:36:47.640Z,71.00
2019-05-14T00:39:13.646Z,71.33
2019-05-14T00:41:41.782Z,71.53
2019-05-14T00:44:07.592Z,71.70
2019-05-14T00:46:33.722Z,71.88
2019-05-14T00:49:01.685Z,72.04
2019-05-14T00:51:27.828Z,72.41
2019-05-14T00:53:53.932Z,72.42
2019-05-14T00:56:21.647Z,72.19
2019-05-14T00:58:47.771Z,72.37
2019-05-14T01:01:13.887Z,72.36
2019-05-14T01:03:41.496Z,72.31
2019-05-14T01:06:07.713Z,72.30
2019-05-14T01:08:33.826Z,72.36
2019-05-14T01:11:01.629Z,72.09
2019-05-14T01:13:27.999Z,72.13
2019-05-14T01:15:54.102Z,72.24
2019-05-14T01:18:22.011Z,72.32
2019-05-14T01:20:48.115Z,72.38
2019-05-14T01:23:16.122Z,72.67
2019-05-14T01:25:42.300Z,72.78
2019-05-14T01:28:08.435Z,72.15
2019-05-14T01:30:34.540Z,72.12
2019-05-14T01:33:01.775Z,72.66
2019-05-14T01:35:28.078Z,72.69
2019-05-14T01:37:53.990Z,72.74
2019-05-14T01:40:21.858Z,72.47
2019-05-14T01:42:47.895Z,72.44
2019-05-14T01:45:23.955Z,72.31
2019-05-14T01:47:41.812Z,72.41
2019-05-14T01:50:08.011Z,72.72
2019-05-14T01:52:33.913Z,72.46
2019-05-14T01:55:02.014Z,72.43
2019-05-14T01:57:27.813Z,72.42
2019-05-14T01:59:53.748Z,72.17
2019-05-14T02:02:21.887Z,72.33
2019-05-14T02:04:47.683Z,72.38
2019-05-14T02:07:16.052Z,72.44
2019-05-14T02:09:42.182Z,72.70
2019-05-14T02:12:08.343Z,72.54
2019-05-14T02:14:34.265Z,72.39
2019-05-14T02:17:01.897Z,72.40
2019-05-14T02:19:28.299Z,72.38
2019-05-14T02:21:54.315Z,72.57
2019-05-14T02:24:21.790Z,72.48
2019-05-14T02:26:48.060Z,72.30
2019-05-14T02:29:13.995Z,72.52
2019-05-14T02:31:40.034Z,72.52
2019-05-14T02:34:05.935Z,72.77
2019-05-14T02:36:31.865Z,72.24
2019-05-14T02:39:00.324Z,72.28
2019-05-14T02:41:25.983Z,72.37
2019-05-14T02:43:52.079Z,72.59
2019-05-14T02:46:21.747Z,72.57
2019-05-14T02:48:48.927Z,72.63
2019-05-14T02:51:14.040Z,72.34
2019-05-14T02:53:40.043Z,72.38
2019-05-14T02:56:06.041Z,72.40
2019-05-14T02:58:32.186Z,72.52
2019-05-14T03:01:00.446Z,72.23
2019-05-14T03:03:26.309Z,72.17
2019-05-14T03:05:52.407Z,72.10
2019-05-14T03:08:19.920Z,72.36
2019-05-14T03:10:49.822Z,72.46
2019-05-14T03:13:14.332Z,72.26
2019-05-14T03:15:40.977Z,72.21
2019-05-14T03:18:09.262Z,72.42
2019-05-14T03:20:35.289Z,72.53
2019-05-14T03:23:07.998Z,72.62
2019-05-14T03:25:30.315Z,72.72
2019-05-14T03:27:59.615Z,72.85
2019-05-14T03:30:24.703Z,73.11
2019-05-14T03:32:52.892Z,73.27
2019-05-14T03:35:23.292Z,73.36
2019-05-14T03:37:49.687Z,73.54
2019-05-14T03:40:14.828Z,73.83
2019-05-14T03:42:40.994Z,73.89
2019-05-14T03:45:08.642Z,74.13
2019-05-14T03:47:34.913Z,74.38
2019-05-14T03:50:01.018Z,74.57
2019-05-14T03:52:29.204Z,74.65
2019-05-14T03:54:55.133Z,75.05
2019-05-14T03:57:21.246Z,75.26
2019-05-14T03:59:49.826Z,75.58
2019-05-14T04:02:15.390Z,75.92
2019-05-14T04:04:41.429Z,75.82
2019-05-14T04:07:09.814Z,75.91
2019-05-14T04:09:39.737Z,75.74
2019-05-14T04:12:09.755Z,75.59
2019-05-14T04:14:39.625Z,75.76
2019-05-14T04:17:11.047Z,75.64
2019-05-14T04:19:39.460Z,75.67
2019-05-14T04:22:05.195Z,75.58
2019-05-14T04:24:37.081Z,75.64
2019-05-14T04:27:11.632Z,75.60
2019-05-14T04:29:33.835Z,75.51
2019-05-14T04:32:01.743Z,75.55
2019-05-14T04:34:29.970Z,75.55
2019-05-14T04:36:59.064Z,75.48
2019-05-14T04:39:24.021Z,75.26
2019-05-14T04:41:50.159Z,75.48
2019-05-14T04:44:19.277Z,75.55
2019-05-14T04:46:44.464Z,75.41
2019-05-14T04:49:11.940Z,75.40
2019-05-14T04:51:39.642Z,75.30
2019-05-14T04:54:09.283Z,75.18
2019-05-14T04:56:34.118Z,75.14
2019-05-14T04:59:00.247Z,75.15
2019-05-14T05:01:29.251Z,75.72
2019-05-14T05:03:54.104Z,75.58
2019-05-14T05:06:20.113Z,75.45
2019-05-14T05:08:49.439Z,75.33
2019-05-14T05:11:16.997Z,75.37
2019-05-14T05:13:42.087Z,75.14
2019-05-14T05:16:09.883Z,75.19
2019-05-14T05:18:36.096Z,75.19
2019-05-14T05:21:02.200Z,75.18
2019-05-14T05:23:28.444Z,75.16
2019-05-14T05:25:54.604Z,74.99
2019-05-14T05:28:20.705Z,75.61
2019-05-14T05:30:48.990Z,75.28
2019-05-14T05:33:14.897Z,75.12
2019-05-14T05:35:42.418Z,74.97
2019-05-14T05:38:08.843Z,74.75
2019-05-14T05:40:34.851Z,74.97
2019-05-14T05:43:00.892Z,74.80
2019-05-14T05:45:29.018Z,74.85
2019-05-14T05:47:58.440Z,74.67
2019-05-14T05:50:22.854Z,74.65
2019-05-14T05:52:53.153Z,74.73
2019-05-14T05:55:19.172Z,74.67
2019-05-14T05:57:45.329Z,74.55
2019-05-14T06:00:12.161Z,74.46
2019-05-14T06:02:40.060Z,74.59
2019-05-14T06:05:08.131Z,74.73
2019-05-14T06:07:34.295Z,74.59
2019-05-14T06:10:00.404Z,74.38
2019-05-14T06:12:26.588Z,74.51
2019-05-14T06:14:52.602Z,74.33
2019-05-14T06:17:19.169Z,74.40
2019-05-14T06:19:45.529Z,74.60
2019-05-14T06:22:11.645Z,74.50
2019-05-14T06:24:38.985Z,74.54
2019-05-14T06:27:05.195Z,74.31
2019-05-14T06:29:31.138Z,74.22
2019-05-14T06:31:58.919Z,74.50
2019-05-14T06:34:24.982Z,74.59
2019-05-14T06:36:50.967Z,74.64
2019-05-14T06:39:18.282Z,74.22
2019-05-14T06:41:44.434Z,74.35
2019-05-14T06:44:10.333Z,74.12
2019-05-14T06:46:36.260Z,74.77
2019-05-14T06:49:02.359Z,74.82
2019-05-14T06:51:28.979Z,74.88
2019-05-14T06:53:55.777Z,74.39
2019-05-14T06:56:22.116Z,74.26
2019-05-14T06:58:49.064Z,74.56
2019-05-14T07:01:15.459Z,74.36
2019-05-14T07:03:41.471Z,74.15
2019-05-14T07:06:09.001Z,74.25
2019-05-14T07:08:35.711Z,74.43
2019-05-14T07:11:01.718Z,74.60
2019-05-14T07:13:29.275Z,75.09
2019-05-14T07:15:58.186Z,74.87
2019-05-14T07:18:23.576Z,74.62
2019-05-14T07:20:49.581Z,74.63
2019-05-14T07:23:19.202Z,74.47
2019-05-14T07:25:43.825Z,74.40
2019-05-14T07:28:10.502Z,74.16
2019-05-14T07:30:39.346Z,74.05
2019-05-14T07:33:04.523Z,74.34
2019-05-14T07:35:30.625Z,74.43
2019-05-14T07:37:58.993Z,74.37
2019-05-14T07:40:24.468Z,74.30
2019-05-14T07:42:50.473Z,74.27
2019-05-14T07:45:18.498Z,74.25
2019-05-14T07:47:44.488Z,74.54
2019-05-14T07:50:11.136Z,74.27
2019-05-14T07:52:45.301Z,74.50
2019-05-14T07:55:09.116Z,74.57
2019-05-14T07:57:35.220Z,74.63
2019-05-14T08:00:01.926Z,74.20
2019-05-14T08:02:28.973Z,73.98
2019-05-14T08:04:55.171Z,74.20
2019-05-14T08:07:21.311Z,74.29
2019-05-14T08:09:47.961Z,74.47
2019-05-14T08:12:16.348Z,74.52
2019-05-14T08:14:57.203Z,74.39
2019-05-14T08:17:10.750Z,74.41
2019-05-14T08:19:38.521Z,73.97
2019-05-14T08:22:04.845Z,74.38
2019-05-14T08:24:31.009Z,74.45
2019-05-14T08:26:57.917Z,74.27
2019-05-14T08:29:24.137Z,74.48
2019-05-14T08:31:50.277Z,74.47
2019-05-14T08:34:19.018Z,74.49
2019-05-14T08:36:44.402Z,74.73
2019-05-14T08:39:10.412Z,74.17
2019-05-14T08:41:38.452Z,74.52
2019-05-14T08:44:04.577Z,74.62
2019-05-14T08:46:31.407Z,73.89
2019-05-14T08:48:58.598Z,74.50
2019-05-14T08:51:25.047Z,73.83
2019-05-14T08:53:51.000Z,74.00
2019-05-14T08:56:19.207Z,73.50
2019-05-14T08:58:45.045Z,73.17
2019-05-14T09:01:11.181Z,73.32
2019-05-14T09:03:39.246Z,73.33
2019-05-14T09:06:05.242Z,73.07
2019-05-14T09:08:31.350Z,73.21
2019-05-14T09:10:59.043Z,73.28
2019-05-14T09:13:25.480Z,73.20
2019-05-14T09:15:51.486Z,73.40
2019-05-14T09:18:18.501Z,72.84
2019-05-14T09:20:44.805Z,73.39
2019-05-14T09:23:10.920Z,73.36
2019-05-14T09:25:45.667Z,73.42
2019-05-14T09:28:04.983Z,73.33
2019-05-14T09:30:31.099Z,73.52
2019-05-14T09:32:59.390Z,73.68
2019-05-14T09:35:25.231Z,73.49
2019-05-14T09:37:51.593Z,73.51
2019-05-14T09:40:19.837Z,72.76
2019-05-14T09:42:45.794Z,72.53
2019-05-14T09:45:12.035Z,72.64
2019-05-14T09:47:38.782Z,73.01
2019-05-14T09:50:16.362Z,73.07
2019-05-14T09:52:33.773Z,73.74
2019-05-14T09:54:59.777Z,73.29
2019-05-14T09:57:28.036Z,73.65
2019-05-14T09:59:53.719Z,73.57
2019-05-14T10:02:19.728Z,73.61
2019-05-14T10:04:48.671Z,73.48
2019-05-14T10:07:15.556Z,73.82
2019-05-14T10:09:41.645Z,73.61
2019-05-14T10:12:08.953Z,73.28
2019-05-14T10:14:35.199Z,73.39
2019-05-14T10:17:01.277Z,73.66
2019-05-14T10:19:29.508Z,73.89
2019-05-14T10:21:55.300Z,73.69
2019-05-14T10:24:21.333Z,73.54
2019-05-14T10:26:49.063Z,73.68
2019-05-14T10:29:15.366Z,73.86
2019-05-14T10:31:41.471Z,73.88
2019-05-14T10:34:08.383Z,74.27
2019-05-14T10:36:34.557Z,74.00
2019-05-14T10:39:00.704Z,74.05
2019-05-14T10:41:28.962Z,74.37
2019-05-14T10:43:54.852Z,74.51
2019-05-14T10:46:20.769Z,74.50
2019-05-14T10:48:46.820Z,74.71
2019-05-14T10:51:12.918Z,74.75
2019-05-14T10:53:39.029Z,74.68
2019-05-14T10:56:05.141Z,74.88
2019-05-14T10:58:31.158Z,74.96
2019-05-14T11:00:58.987Z,75.02
2019-05-14T11:03:25.252Z,75.19
2019-05-14T11:05:51.365Z,74.90
2019-05-14T11:08:18.906Z,75.04
2019-05-14T11:10:45.889Z,75.20
2019-05-14T11:13:12.003Z,75.17
2019-05-14T11:15:39.549Z,75.04
2019-05-14T11:18:08.469Z,75.27
2019-05-14T11:20:33.763Z,74.70
2019-05-14T11:22:59.874Z,74.31
2019-05-14T11:25:25.989Z,74.14
2019-05-14T11:27:51.993Z,74.06
2019-05-14T11:30:19.497Z,74.52
2019-05-14T11:32:45.764Z,75.02
2019-05-14T11:35:13.173Z,74.35
2019-05-14T11:37:41.403Z,74.96
2019-05-14T11:40:08.762Z,74.42
2019-05-14T11:42:34.965Z,74.62
2019-05-14T11:45:01.102Z,74.76
2019-05-14T11:47:27.209Z,74.54
2019-05-14T11:49:53.217Z,74.97
2019-05-14T11:52:19.319Z,75.07
2019-05-14T11:54:46.001Z,75.03
2019-05-14T11:57:12.073Z,74.85
2019-05-14T11:59:39.124Z,74.84
2019-05-14T12:02:05.458Z,74.42
2019-05-14T12:04:31.558Z,74.15
2019-05-14T12:06:59.129Z,74.27
2019-05-14T12:09:28.212Z,74.21
2019-05-14T12:11:53.491Z,73.90
2019-05-14T12:14:19.686Z,73.70
2019-05-14T12:16:49.207Z,74.12
2019-05-14T12:19:13.761Z,73.89
2019-05-14T12:21:40.001Z,73.78
2019-05-14T12:24:09.117Z,73.87
2019-05-14T12:26:34.202Z,74.40
2019-05-14T12:29:00.311Z,73.87
2019-05-14T12:31:28.806Z,73.73
2019-05-14T12:33:54.476Z,73.51
2019-05-14T12:36:20.604Z,73.64
2019-05-14T12:38:46.621Z,73.58
2019-05-14T12:41:12.783Z,73.95
2019-05-14T12:43:39.783Z,74.05
2019-05-14T12:46:10.074Z,73.80
2019-05-14T12:48:34.834Z,73.53
2019-05-14T12:51:00.944Z,72.65
2019-05-14T12:53:28.762Z,73.54
2019-05-14T12:55:55.113Z,73.76
2019-05-14T12:58:21.167Z,73.48
2019-05-14T13:00:48.705Z,73.59
2019-05-14T13:03:15.048Z,73.49
2019-05-14T13:05:41.153Z,73.52
2019-05-14T13:08:11.209Z,73.70
2019-05-14T13:10:35.288Z,73.84
2019-05-14T13:13:01.293Z,73.62
2019-05-14T13:15:28.731Z,73.92
2019-05-14T13:17:54.924Z,73.97
2019-05-14T13:20:22.040Z,72.86
2019-05-14T13:22:50.186Z,73.24
2019-05-14T13:25:19.185Z,72.91
2019-05-14T13:27:44.300Z,73.61
2019-05-14T13:30:14.140Z,74.02
2019-05-14T13:32:40.372Z,74.12
2019-05-14T13:35:10.450Z,74.35
2019-05-14T13:37:34.794Z,75.23
2019-05-14T13:40:00.897Z,75.08
2019-05-14T13:42:29.386Z,74.74
2019-05-14T13:44:54.909Z,74.43
2019-05-14T13:47:21.030Z,74.89
2019-05-14T13:49:48.729Z,74.26
2019-05-14T13:52:14.945Z,74.27
2019-05-14T13:54:40.953Z,74.89
2019-05-14T13:57:09.090Z,75.43
2019-05-14T13:59:35.105Z,75.39
2019-05-14T14:02:01.214Z,75.77
2019-05-14T14:04:27.312Z,76.07
2019-05-14T14:06:54.043Z,75.60
2019-05-14T14:09:20.744Z,75.71
2019-05-14T14:11:48.326Z,75.71
2019-05-14T14:14:14.492Z,75.82
2019-05-14T14:16:40.616Z,75.88
2019-05-14T14:19:08.750Z,75.64
2019-05-14T14:21:34.805Z,75.26
2019-05-14T14:24:01.016Z,75.22
2019-05-14T14:26:29.164Z,75.47
2019-05-14T14:28:55.153Z,75.71
2019-05-14T14:31:21.268Z,75.48
2019-05-14T14:33:48.682Z,76.02
2019-05-14T14:36:15.040Z,76.06
2019-05-14T14:38:40.993Z,75.94
2019-05-14T14:41:09.768Z,76.10
2019-05-14T14:43:35.080Z,75.99
2019-05-14T14:46:01.156Z,75.89
2019-05-14T14:48:30.222Z,75.38
2019-05-14T14:50:55.233Z,75.60
2019-05-14T14:53:40.794Z,75.32
2019-05-14T14:55:49.985Z,75.28
2019-05-14T14:58:16.226Z,75.55
2019-05-14T15:00:42.332Z,75.15
2019-05-14T15:03:10.111Z,75.48
2019-05-14T15:05:39.011Z,75.50
2019-05-14T15:08:04.206Z,75.53
2019-05-14T15:10:30.407Z,75.41
2019-05-14T15:12:58.752Z,75.80
2019-05-14T15:15:24.416Z,75.85
2019-05-14T15:17:50.447Z,75.61
2019-05-14T15:20:19.272Z,75.86
2019-05-14T15:22:44.675Z,75.77
2019-05-14T15:25:10.730Z,75.89
2019-05-14T15:27:38.549Z,76.08
2019-05-14T15:30:06.689Z,76.18
2019-05-14T15:32:32.712Z,76.32
2019-05-14T15:34:59.597Z,76.35
2019-05-14T15:37:28.605Z,76.48
2019-05-14T15:39:53.640Z,76.32
2019-05-14T15:42:19.789Z,76.27
2019-05-14T15:44:52.117Z,76.48
2019-05-14T15:47:13.734Z,76.22
2019-05-14T15:49:39.771Z,76.46
2019-05-14T15:52:08.276Z,76.35
2019-05-14T15:54:42.244Z,76.36
2019-05-14T15:57:01.810Z,76.90
2019-05-14T15:59:28.442Z,76.80
2019-05-14T16:01:54.742Z,76.41
2019-05-14T16:04:21.012Z,76.46
2019-05-14T16:06:48.880Z,76.40
2019-05-14T16:09:14.963Z,76.93
2019-05-14T16:11:40.971Z,77.15
2019-05-14T16:14:07.970Z,76.96
2019-05-14T16:16:35.603Z,76.98
2019-05-14T16:19:01.640Z,77.11
2019-05-14T16:21:28.900Z,77.03
2019-05-14T16:23:55.182Z,77.26
2019-05-14T16:26:21.351Z,77.22
2019-05-14T16:28:47.476Z,77.39
2019-05-14T16:31:13.483Z,77.45
2019-05-14T16:33:40.663Z,77.43
2019-05-14T16:36:08.829Z,77.40
2019-05-14T16:38:34.938Z,77.53
2019-05-14T16:41:00.849Z,77.75
2019-05-14T16:43:32.052Z,77.82
2019-05-14T16:45:55.421Z,77.83
2019-05-14T16:48:21.345Z,78.08
2019-05-14T16:50:48.937Z,77.97
2019-05-14T16:53:15.296Z,77.68
2019-05-14T16:55:41.405Z,77.73
2019-05-14T16:58:08.967Z,77.81
2019-05-14T17:00:35.246Z,78.05
2019-05-14T17:03:01.259Z,78.40
2019-05-14T17:05:29.884Z,78.38
2019-05-14T17:07:55.167Z,78.34
2019-05-14T17:10:21.410Z,78.32
2019-05-14T17:12:53.488Z,78.33
2019-05-14T17:15:18.036Z,78.57
2019-05-14T17:17:43.662Z,78.57
2019-05-14T17:20:09.871Z,78.67
2019-05-14T17:22:35.777Z,78.67
2019-05-14T17:25:01.927Z,78.86
2019-05-14T17:27:28.630Z,78.66
2019-05-14T17:29:54.972Z,78.79
2019-05-14T17:32:21.079Z,79.02
2019-05-14T17:34:49.069Z,79.16
2019-05-14T17:37:15.093Z,79.32
2019-05-14T17:39:41.230Z,79.27
2019-05-14T17:42:11.410Z,79.26
2019-05-14T17:44:35.318Z,79.32
2019-05-14T17:47:01.325Z,79.40
2019-05-14T17:49:28.374Z,79.25
2019-05-14T17:51:54.578Z,79.34
2019-05-14T17:54:20.687Z,79.42
2019-05-14T17:56:48.665Z,79.38
2019-05-14T17:59:19.749Z,79.52
2019-05-14T18:01:45.964Z,79.63
2019-05-14T18:04:11.981Z,79.57
2019-05-14T18:06:38.099Z,79.56
2019-05-14T18:09:04.443Z,79.45
2019-05-14T18:11:30.571Z,79.45
2019-05-14T18:13:59.814Z,79.46
2019-05-14T18:16:25.687Z,79.44
2019-05-14T18:18:51.843Z,79.61
2019-05-14T18:21:17.964Z,79.39
2019-05-14T18:23:43.962Z,79.21
2019-05-14T18:26:10.135Z,79.25
2019-05-14T18:28:38.285Z,79.25
2019-05-14T18:31:04.455Z,79.44
2019-05-14T18:33:31.398Z,79.43
2019-05-14T18:35:58.939Z,79.56
2019-05-14T18:38:25.523Z,79.51
2019-05-14T18:40:51.758Z,79.67
2019-05-14T18:43:18.757Z,79.61
2019-05-14T18:45:45.103Z,79.60
2019-05-14T18:48:11.240Z,79.65
2019-05-14T18:50:37.375Z,79.40
2019-05-14T18:53:03.699Z,79.63
2019-05-14T18:55:29.737Z,79.75
2019-05-14T18:57:56.048Z,79.54
2019-05-14T19:00:22.332Z,79.48
2019-05-14T19:02:48.434Z,79.47
2019-05-14T19:05:14.942Z,79.56
2019-05-14T19:07:41.518Z,79.61
2019-05-14T19:10:09.321Z,79.65
2019-05-14T19:12:35.592Z,79.70
2019-05-14T19:15:01.692Z,79.73
2019-05-14T19:17:28.339Z,79.76
2019-05-14T19:19:54.411Z,79.68
2019-05-14T19:22:20.558Z,79.83
2019-05-14T19:24:49.065Z,79.80
2019-05-14T19:27:14.675Z,79.87
2019-05-14T19:29:40.687Z,80.08
2019-05-14T19:32:08.217Z,80.24
2019-05-14T19:34:34.423Z,80.22
2019-05-14T19:37:00.435Z,80.35
2019-05-14T19:39:28.202Z,80.31
2019-05-14T19:41:54.476Z,80.29
2019-05-14T19:44:20.473Z,80.15
2019-05-14T19:46:49.067Z,80.22
2019-05-14T19:49:14.505Z,80.14
2019-05-14T19:51:40.411Z,80.06
2019-05-14T19:54:08.165Z,80.23
2019-05-14T19:56:51.331Z,80.23
2019-05-14T19:59:02.265Z,80.19
2019-05-14T20:01:28.828Z,80.24
2019-05-14T20:03:55.105Z,80.31
2019-05-14T20:06:21.122Z,80.47
2019-05-14T20:08:48.225Z,80.48
2019-05-14T20:11:14.666Z,80.48
2019-05-14T20:13:40.770Z,80.49
2019-05-14T20:16:08.673Z,80.44
2019-05-14T20:18:34.827Z,80.39
2019-05-14T20:21:00.936Z,80.27
2019-05-14T20:23:28.952Z,80.22
2019-05-14T20:25:54.950Z,80.42
2019-05-14T20:28:20.955Z,80.29
2019-05-14T20:30:49.203Z,80.32
2019-05-14T20:33:15.126Z,80.36
2019-05-14T20:35:41.827Z,80.26
2019-05-14T20:38:09.033Z,80.23
2019-05-14T20:40:35.181Z,80.20
2019-05-14T20:43:01.303Z,79.95
2019-05-14T20:45:28.888Z,80.08
2019-05-14T20:47:55.834Z,80.13
2019-05-14T20:50:21.937Z,80.18
2019-05-14T20:52:48.437Z,80.11
2019-05-14T20:55:14.642Z,80.01
2019-05-14T20:57:40.746Z,80.18
2019-05-14T21:00:07.957Z,80.11
2019-05-14T21:02:33.969Z,80.10
2019-05-14T21:05:04.536Z,80.12
2019-05-14T21:07:28.831Z,80.17
2019-05-14T21:09:55.205Z,80.15
2019-05-14T21:12:21.239Z,80.22
2019-05-14T21:14:49.150Z,80.35
2019-05-14T21:17:15.417Z,80.22
2019-05-14T21:19:41.517Z,80.29
2019-05-14T21:22:08.409Z,80.41
2019-05-14T21:24:34.696Z,80.43
2019-05-14T21:27:00.603Z,80.60
2019-05-14T21:29:30.309Z,80.49
2019-05-14T21:31:54.583Z,80.33
2019-05-14T21:34:20.615Z,79.93
2019-05-14T21:36:46.715Z,79.99
2019-05-14T21:39:12.743Z,79.95
2019-05-14T21:41:38.882Z,79.99
2019-05-14T21:44:04.971Z,79.74
2019-05-14T21:46:31.754Z,79.57
2019-05-14T21:48:58.504Z,79.72
2019-05-14T21:51:24.817Z,79.73
2019-05-14T21:53:50.916Z,79.59
2019-05-14T21:56:21.248Z,79.75
2019-05-14T21:58:44.943Z,79.79
2019-05-14T22:01:11.448Z,79.67
2019-05-14T22:03:40.079Z,79.77
2019-05-14T22:06:05.695Z,79.97
2019-05-14T22:08:31.809Z,79.86
2019-05-14T22:10:58.558Z,79.91
2019-05-14T22:13:24.627Z,79.97
2019-05-14T22:15:50.743Z,80.02
2019-05-14T22:18:20.103Z,79.89
2019-05-14T22:20:44.751Z,79.62
2019-05-14T22:23:10.758Z,79.61
2019-05-14T22:25:39.143Z,79.70
2019-05-14T22:28:12.367Z,79.57
2019-05-14T22:30:32.919Z,79.82
2019-05-14T22:33:00.693Z,79.91
2019-05-14T22:35:28.330Z,80.08
2019-05-14T22:37:54.767Z,80.09
2019-05-14T22:40:20.776Z,79.93
2019-05-14T22:42:46.802Z,80.03
2019-05-14T22:45:13.113Z,80.20
2019-05-14T22:47:40.426Z,80.28
2019-05-14T22:50:08.971Z,80.19
2019-05-14T22:52:35.309Z,80.35
2019-05-14T22:55:01.424Z,80.25
2019-05-14T22:57:30.847Z,80.23
2019-05-14T22:59:55.277Z,80.38
2019-05-14T23:02:21.195Z,80.43
2019-05-14T23:04:49.266Z,80.40
2019-05-14T23:07:15.320Z,80.43
2019-05-14T23:09:41.327Z,80.38
2019-05-14T23:12:12.110Z,80.44
2019-05-14T23:14:35.391Z,80.40
2019-05-14T23:17:01.520Z,80.41
2019-05-14T23:19:27.551Z,80.22
2019-05-14T23:21:53.675Z,80.26
2019-05-14T23:24:20.372Z,80.22
2019-05-14T23:26:49.014Z,80.16
2019-05-14T23:29:14.191Z,80.09
2019-05-14T23:31:40.233Z,80.06
2019-05-14T23:34:06.336Z,80.08
2019-05-14T23:36:32.469Z,80.20
2019-05-14T23:38:59.176Z,80.23
2019-05-14T23:41:25.377Z,80.44
2019-05-14T23:43:51.412Z,80.36
2019-05-14T23:46:18.356Z,80.37
2019-05-14T23:48:44.527Z,80.54
2019-05-14T23:51:10.531Z,80.67
2019-05-14T23:53:38.848Z,80.45
2019-05-14T23:56:04.681Z,80.47
2019-05-14T23:58:30.720Z,80.49
